sensor_id;sensor_type;location;lat;lon;timestamp;P1;durP1;ratioP1;P2;durP2;ratioP2
18838;SDS011;9548;56.920;14.804;2022-07-17T00:01:36;1.95;;;0.20;;
18838;SDS011;9548;56.920;14.804;2022-07-17T00:04:03;0.30;;;0.17;;
18838;SDS011;9548;56.920;14.804;2022-07-17T00:06:31;0.40;;;0.20;;
18838;SDS011;9548;56.920;14.804;2022-07-17T00:08:59;0.85;;;0.28;;
18838;SDS011;9548;56.920;14.804;2022-07-17T00:11:26;0.20;;;0.20;;
18838;SDS011;9548;56.920;14.804;2022-07-17T00:13:53;0.30;;;0.30;;
18838;SDS011;9548;56.920;14.804;2022-07-17T00:16:20;0.30;;;0.20;;
18838;SDS011;9548;56.920;14.804;2022-07-17T00:18:48;0.75;;;0.35;;
18838;SDS011;9548;56.920;14.804;2022-07-17T00:21:15;0.40;;;0.20;;
18838;SDS011;9548;56.920;14.804;2022-07-17T00:23:42;0.20;;;0.15;;
18838;SDS011;9548;56.920;14.804;2022-07-17T00:26:11;0.20;;;0.20;;
18838;SDS011;9548;56.920;14.804;2022-07-17T00:28:38;0.63;;;0.20;;
18838;SDS011;9548;56.920;14.804;2022-07-17T00:31:05;3.40;;;0.20;;
18838;SDS011;9548;56.920;14.804;2022-07-17T00:33:32;0.32;;;0.30;;
18838;SDS011;9548;56.920;14.804;2022-07-17T00:35:59;1.17;;;0.30;;
18838;SDS011;9548;56.920;14.804;2022-07-17T00:38:26;0.32;;;0.30;;
18838;SDS011;9548;56.920;14.804;2022-07-17T00:40:54;0.30;;;0.30;;
18838;SDS011;9548;56.920;14.804;2022-07-17T00:43:23;1.60;;;0.40;;
18838;SDS011;9548;56.920;14.804;2022-07-17T00:45:55;2.00;;;0.28;;
18838;SDS011;9548;56.920;14.804;2022-07-17T00:48:24;1.95;;;0.40;;
18838;SDS011;9548;56.920;14.804;2022-07-17T00:50:51;0.20;;;0.20;;
18838;SDS011;9548;56.920;14.804;2022-07-17T00:53:19;0.22;;;0.22;;
18838;SDS011;9548;56.920;14.804;2022-07-17T00:55:46;1.65;;;0.38;;
18838;SDS011;9548;56.920;14.804;2022-07-17T00:58:17;0.90;;;0.28;;
18838;SDS011;9548;56.920;14.804;2022-07-17T01:00:47;0.32;;;0.28;;
18838;SDS011;9548;56.920;14.804;2022-07-17T01:03:15;1.55;;;0.40;;
18838;SDS011;9548;56.920;14.804;2022-07-17T01:05:42;0.80;;;0.80;;
18838;SDS011;9548;56.920;14.804;2022-07-17T01:08:10;2.63;;;0.40;;
18838;SDS011;9548;56.920;14.804;2022-07-17T01:10:37;0.77;;;0.45;;
18838;SDS011;9548;56.920;14.804;2022-07-17T01:13:04;1.98;;;0.32;;
18838;SDS011;9548;56.920;14.804;2022-07-17T01:15:31;1.00;;;0.60;;
18838;SDS011;9548;56.920;14.804;2022-07-17T01:18:00;2.13;;;0.30;;
18838;SDS011;9548;56.920;14.804;2022-07-17T01:20:32;1.38;;;0.65;;
18838;SDS011;9548;56.920;14.804;2022-07-17T01:23:01;0.40;;;0.40;;
18838;SDS011;9548;56.920;14.804;2022-07-17T01:25:28;0.73;;;0.30;;
18838;SDS011;9548;56.920;14.804;2022-07-17T01:27:55;1.45;;;0.43;;
18838;SDS011;9548;56.920;14.804;2022-07-17T01:30:22;0.50;;;0.40;;
18838;SDS011;9548;56.920;14.804;2022-07-17T01:32:49;2.05;;;0.40;;
18838;SDS011;9548;56.920;14.804;2022-07-17T01:35:16;1.38;;;0.50;;
18838;SDS011;9548;56.920;14.804;2022-07-17T01:37:44;1.25;;;0.40;;
18838;SDS011;9548;56.920;14.804;2022-07-17T01:40:13;3.35;;;0.70;;
18838;SDS011;9548;56.920;14.804;2022-07-17T01:42:42;3.50;;;0.60;;
18838;SDS011;9548;56.920;14.804;2022-07-17T01:45:11;1.48;;;0.40;;
18838;SDS011;9548;56.920;14.804;2022-07-17T01:47:39;3.55;;;0.50;;
18838;SDS011;9548;56.920;14.804;2022-07-17T01:50:06;4.00;;;0.50;;
18838;SDS011;9548;56.920;14.804;2022-07-17T01:52:34;2.30;;;0.52;;
18838;SDS011;9548;56.920;14.804;2022-07-17T01:55:03;0.60;;;0.40;;
18838;SDS011;9548;56.920;14.804;2022-07-17T01:57:32;0.68;;;0.40;;
18838;SDS011;9548;56.920;14.804;2022-07-17T01:59:59;5.15;;;0.50;;
18838;SDS011;9548;56.920;14.804;2022-07-17T02:02:27;0.80;;;0.40;;
18838;SDS011;9548;56.920;14.804;2022-07-17T02:04:54;1.25;;;0.47;;
18838;SDS011;9548;56.920;14.804;2022-07-17T02:07:21;3.05;;;0.32;;
18838;SDS011;9548;56.920;14.804;2022-07-17T02:09:48;1.73;;;0.50;;
18838;SDS011;9548;56.920;14.804;2022-07-17T02:12:15;1.23;;;0.43;;
18838;SDS011;9548;56.920;14.804;2022-07-17T02:14:43;1.63;;;0.43;;
18838;SDS011;9548;56.920;14.804;2022-07-17T02:17:10;1.98;;;0.50;;
18838;SDS011;9548;56.920;14.804;2022-07-17T02:19:37;5.63;;;0.63;;
18838;SDS011;9548;56.920;14.804;2022-07-17T02:22:04;3.15;;;0.47;;
18838;SDS011;9548;56.920;14.804;2022-07-17T02:24:31;1.25;;;0.50;;
18838;SDS011;9548;56.920;14.804;2022-07-17T02:26:58;1.33;;;0.50;;
18838;SDS011;9548;56.920;14.804;2022-07-17T02:29:25;4.18;;;0.80;;
18838;SDS011;9548;56.920;14.804;2022-07-17T02:31:53;2.15;;;0.73;;
18838;SDS011;9548;56.920;14.804;2022-07-17T02:34:21;1.85;;;0.70;;
18838;SDS011;9548;56.920;14.804;2022-07-17T02:36:48;3.67;;;0.88;;
18838;SDS011;9548;56.920;14.804;2022-07-17T02:39:14;8.13;;;0.90;;
18838;SDS011;9548;56.920;14.804;2022-07-17T02:41:42;5.50;;;0.70;;
18838;SDS011;9548;56.920;14.804;2022-07-17T02:44:09;1.55;;;0.57;;
18838;SDS011;9548;56.920;14.804;2022-07-17T02:46:36;7.20;;;0.73;;
18838;SDS011;9548;56.920;14.804;2022-07-17T02:49:04;8.30;;;0.85;;
18838;SDS011;9548;56.920;14.804;2022-07-17T02:51:31;7.72;;;1.30;;
18838;SDS011;9548;56.920;14.804;2022-07-17T02:53:58;2.08;;;0.50;;
18838;SDS011;9548;56.920;14.804;2022-07-17T02:56:25;4.30;;;0.70;;
18838;SDS011;9548;56.920;14.804;2022-07-17T02:58:52;9.43;;;0.90;;
18838;SDS011;9548;56.920;14.804;2022-07-17T03:01:19;8.52;;;1.15;;
18838;SDS011;9548;56.920;14.804;2022-07-17T03:03:46;5.82;;;0.82;;
18838;SDS011;9548;56.920;14.804;2022-07-17T03:06:14;5.18;;;1.02;;
18838;SDS011;9548;56.920;14.804;2022-07-17T03:08:41;3.70;;;1.00;;
18838;SDS011;9548;56.920;14.804;2022-07-17T03:11:08;3.60;;;0.90;;
18838;SDS011;9548;56.920;14.804;2022-07-17T03:13:35;9.27;;;0.95;;
18838;SDS011;9548;56.920;14.804;2022-07-17T03:16:02;5.50;;;0.85;;
18838;SDS011;9548;56.920;14.804;2022-07-17T03:18:30;4.20;;;1.00;;
18838;SDS011;9548;56.920;14.804;2022-07-17T03:20:57;4.45;;;1.00;;
18838;SDS011;9548;56.920;14.804;2022-07-17T03:23:25;3.90;;;0.70;;
18838;SDS011;9548;56.920;14.804;2022-07-17T03:25:53;3.83;;;0.90;;
18838;SDS011;9548;56.920;14.804;2022-07-17T03:28:19;3.97;;;0.90;;
18838;SDS011;9548;56.920;14.804;2022-07-17T03:30:46;6.88;;;1.02;;
18838;SDS011;9548;56.920;14.804;2022-07-17T03:33:13;10.35;;;1.02;;
18838;SDS011;9548;56.920;14.804;2022-07-17T03:35:40;8.65;;;1.50;;
18838;SDS011;9548;56.920;14.804;2022-07-17T03:38:07;12.20;;;1.55;;
18838;SDS011;9548;56.920;14.804;2022-07-17T03:40:36;7.32;;;1.30;;
18838;SDS011;9548;56.920;14.804;2022-07-17T03:43:03;12.73;;;1.77;;
18838;SDS011;9548;56.920;14.804;2022-07-17T03:45:30;9.55;;;1.40;;
18838;SDS011;9548;56.920;14.804;2022-07-17T03:47:56;8.82;;;1.30;;
18838;SDS011;9548;56.920;14.804;2022-07-17T03:50:24;8.93;;;1.40;;
18838;SDS011;9548;56.920;14.804;2022-07-17T03:52:51;11.90;;;1.70;;
18838;SDS011;9548;56.920;14.804;2022-07-17T03:55:18;8.00;;;1.30;;
18838;SDS011;9548;56.920;14.804;2022-07-17T03:57:46;8.23;;;1.48;;
18838;SDS011;9548;56.920;14.804;2022-07-17T04:00:14;18.65;;;2.45;;
18838;SDS011;9548;56.920;14.804;2022-07-17T04:02:41;10.70;;;1.65;;
18838;SDS011;9548;56.920;14.804;2022-07-17T04:05:08;7.40;;;1.63;;
18838;SDS011;9548;56.920;14.804;2022-07-17T04:07:36;7.95;;;1.70;;
18838;SDS011;9548;56.920;14.804;2022-07-17T04:10:03;12.73;;;1.67;;
18838;SDS011;9548;56.920;14.804;2022-07-17T04:12:31;13.48;;;1.23;;
18838;SDS011;9548;56.920;14.804;2022-07-17T04:15:00;10.13;;;2.45;;
18838;SDS011;9548;56.920;14.804;2022-07-17T04:17:28;4.75;;;1.30;;
18838;SDS011;9548;56.920;14.804;2022-07-17T04:19:54;7.90;;;1.17;;
18838;SDS011;9548;56.920;14.804;2022-07-17T04:22:21;8.63;;;1.35;;
18838;SDS011;9548;56.920;14.804;2022-07-17T04:24:49;7.72;;;1.73;;
18838;SDS011;9548;56.920;14.804;2022-07-17T04:27:16;13.38;;;2.00;;
18838;SDS011;9548;56.920;14.804;2022-07-17T04:29:43;5.95;;;1.20;;
18838;SDS011;9548;56.920;14.804;2022-07-17T04:32:12;9.57;;;1.30;;
18838;SDS011;9548;56.920;14.804;2022-07-17T04:34:39;14.73;;;1.58;;
18838;SDS011;9548;56.920;14.804;2022-07-17T04:37:06;11.88;;;1.70;;
18838;SDS011;9548;56.920;14.804;2022-07-17T04:39:33;14.65;;;1.88;;
18838;SDS011;9548;56.920;14.804;2022-07-17T04:42:00;13.05;;;1.50;;
18838;SDS011;9548;56.920;14.804;2022-07-17T04:44:27;14.43;;;1.67;;
18838;SDS011;9548;56.920;14.804;2022-07-17T04:46:54;10.38;;;1.48;;
18838;SDS011;9548;56.920;14.804;2022-07-17T04:49:23;14.07;;;2.22;;
18838;SDS011;9548;56.920;14.804;2022-07-17T04:51:50;13.63;;;1.67;;
18838;SDS011;9548;56.920;14.804;2022-07-17T04:54:17;10.90;;;1.42;;
18838;SDS011;9548;56.920;14.804;2022-07-17T04:56:44;7.75;;;1.60;;
18838;SDS011;9548;56.920;14.804;2022-07-17T04:59:11;9.40;;;1.40;;
18838;SDS011;9548;56.920;14.804;2022-07-17T05:01:38;19.45;;;2.92;;
18838;SDS011;9548;56.920;14.804;2022-07-17T05:04:05;10.13;;;1.73;;
18838;SDS011;9548;56.920;14.804;2022-07-17T05:06:33;12.45;;;1.58;;
18838;SDS011;9548;56.920;14.804;2022-07-17T05:09:00;10.98;;;1.58;;
18838;SDS011;9548;56.920;14.804;2022-07-17T05:11:27;11.02;;;1.70;;
18838;SDS011;9548;56.920;14.804;2022-07-17T05:13:54;7.57;;;1.25;;
18838;SDS011;9548;56.920;14.804;2022-07-17T05:16:21;6.22;;;1.55;;
18838;SDS011;9548;56.920;14.804;2022-07-17T05:18:48;7.05;;;1.27;;
18838;SDS011;9548;56.920;14.804;2022-07-17T05:21:15;12.73;;;1.98;;
18838;SDS011;9548;56.920;14.804;2022-07-17T05:23:44;12.07;;;1.52;;
18838;SDS011;9548;56.920;14.804;2022-07-17T05:26:11;10.02;;;1.10;;
18838;SDS011;9548;56.920;14.804;2022-07-17T05:28:38;10.40;;;1.30;;
18838;SDS011;9548;56.920;14.804;2022-07-17T05:31:05;7.13;;;1.15;;
18838;SDS011;9548;56.920;14.804;2022-07-17T05:33:32;7.13;;;1.40;;
18838;SDS011;9548;56.920;14.804;2022-07-17T05:35:59;10.30;;;1.50;;
18838;SDS011;9548;56.920;14.804;2022-07-17T05:38:26;6.70;;;1.10;;
18838;SDS011;9548;56.920;14.804;2022-07-17T05:40:55;9.60;;;1.38;;
18838;SDS011;9548;56.920;14.804;2022-07-17T05:43:22;12.77;;;2.05;;
18838;SDS011;9548;56.920;14.804;2022-07-17T05:45:49;8.05;;;1.60;;
18838;SDS011;9548;56.920;14.804;2022-07-17T05:48:16;12.73;;;1.67;;
18838;SDS011;9548;56.920;14.804;2022-07-17T05:50:43;7.85;;;2.05;;
18838;SDS011;9548;56.920;14.804;2022-07-17T05:53:10;12.48;;;1.95;;
18838;SDS011;9548;56.920;14.804;2022-07-17T05:55:37;12.30;;;1.50;;
18838;SDS011;9548;56.920;14.804;2022-07-17T05:58:05;12.45;;;2.47;;
18838;SDS011;9548;56.920;14.804;2022-07-17T06:00:33;10.43;;;1.70;;
18838;SDS011;9548;56.920;14.804;2022-07-17T06:03:00;5.75;;;1.70;;
18838;SDS011;9548;56.920;14.804;2022-07-17T06:05:27;8.02;;;1.92;;
18838;SDS011;9548;56.920;14.804;2022-07-17T06:07:54;11.55;;;1.90;;
18838;SDS011;9548;56.920;14.804;2022-07-17T06:10:23;7.05;;;1.50;;
18838;SDS011;9548;56.920;14.804;2022-07-17T06:12:50;13.15;;;1.48;;
18838;SDS011;9548;56.920;14.804;2022-07-17T06:15:19;7.15;;;1.35;;
18838;SDS011;9548;56.920;14.804;2022-07-17T06:17:46;9.73;;;1.58;;
18838;SDS011;9548;56.920;14.804;2022-07-17T06:20:14;8.13;;;1.38;;
18838;SDS011;9548;56.920;14.804;2022-07-17T06:22:42;11.77;;;2.03;;
18838;SDS011;9548;56.920;14.804;2022-07-17T06:25:10;8.27;;;1.33;;
18838;SDS011;9548;56.920;14.804;2022-07-17T06:27:38;6.25;;;1.73;;
18838;SDS011;9548;56.920;14.804;2022-07-17T06:30:06;6.63;;;1.50;;
18838;SDS011;9548;56.920;14.804;2022-07-17T06:32:35;10.68;;;1.50;;
18838;SDS011;9548;56.920;14.804;2022-07-17T06:35:02;13.00;;;1.60;;
18838;SDS011;9548;56.920;14.804;2022-07-17T06:37:30;4.97;;;1.50;;
18838;SDS011;9548;56.920;14.804;2022-07-17T06:39:57;6.63;;;1.20;;
18838;SDS011;9548;56.920;14.804;2022-07-17T06:42:24;10.32;;;1.45;;
18838;SDS011;9548;56.920;14.804;2022-07-17T06:44:51;6.47;;;1.20;;
18838;SDS011;9548;56.920;14.804;2022-07-17T06:47:18;7.82;;;1.10;;
18838;SDS011;9548;56.920;14.804;2022-07-17T06:49:46;6.10;;;1.00;;
18838;SDS011;9548;56.920;14.804;2022-07-17T06:52:13;4.90;;;1.30;;
18838;SDS011;9548;56.920;14.804;2022-07-17T06:54:40;5.38;;;1.10;;
18838;SDS011;9548;56.920;14.804;2022-07-17T06:57:07;7.72;;;1.40;;
18838;SDS011;9548;56.920;14.804;2022-07-17T06:59:34;6.38;;;1.20;;
18838;SDS011;9548;56.920;14.804;2022-07-17T07:02:02;5.50;;;1.10;;
18838;SDS011;9548;56.920;14.804;2022-07-17T07:04:30;6.07;;;1.25;;
18838;SDS011;9548;56.920;14.804;2022-07-17T07:06:58;3.35;;;0.90;;
18838;SDS011;9548;56.920;14.804;2022-07-17T07:09:25;8.38;;;1.30;;
18838;SDS011;9548;56.920;14.804;2022-07-17T07:11:52;4.28;;;0.90;;
18838;SDS011;9548;56.920;14.804;2022-07-17T07:14:19;5.25;;;1.20;;
18838;SDS011;9548;56.920;14.804;2022-07-17T07:16:46;8.73;;;1.30;;
18838;SDS011;9548;56.920;14.804;2022-07-17T07:19:13;5.32;;;1.02;;
18838;SDS011;9548;56.920;14.804;2022-07-17T07:21:40;4.40;;;1.10;;
18838;SDS011;9548;56.920;14.804;2022-07-17T07:24:09;3.60;;;1.15;;
18838;SDS011;9548;56.920;14.804;2022-07-17T07:26:36;4.28;;;1.10;;
18838;SDS011;9548;56.920;14.804;2022-07-17T07:29:03;6.75;;;1.38;;
18838;SDS011;9548;56.920;14.804;2022-07-17T07:31:30;5.47;;;1.33;;
18838;SDS011;9548;56.920;14.804;2022-07-17T07:33:58;4.32;;;0.95;;
18838;SDS011;9548;56.920;14.804;2022-07-17T07:36:25;2.83;;;0.95;;
18838;SDS011;9548;56.920;14.804;2022-07-17T07:38:52;4.47;;;0.93;;
18838;SDS011;9548;56.920;14.804;2022-07-17T07:41:20;3.08;;;1.00;;
18838;SDS011;9548;56.920;14.804;2022-07-17T07:43:48;5.97;;;0.90;;
18838;SDS011;9548;56.920;14.804;2022-07-17T07:46:15;4.38;;;1.05;;
18838;SDS011;9548;56.920;14.804;2022-07-17T07:48:42;5.10;;;1.10;;
18838;SDS011;9548;56.920;14.804;2022-07-17T07:51:09;5.25;;;1.05;;
18838;SDS011;9548;56.920;14.804;2022-07-17T07:53:36;6.32;;;1.05;;
18838;SDS011;9548;56.920;14.804;2022-07-17T07:56:03;1.88;;;1.00;;
18838;SDS011;9548;56.920;14.804;2022-07-17T07:58:32;5.05;;;0.95;;
18838;SDS011;9548;56.920;14.804;2022-07-17T08:00:59;4.57;;;1.10;;
18838;SDS011;9548;56.920;14.804;2022-07-17T08:03:26;9.60;;;1.13;;
18838;SDS011;9548;56.920;14.804;2022-07-17T08:05:53;6.85;;;1.17;;
18838;SDS011;9548;56.920;14.804;2022-07-17T08:08:20;6.82;;;1.20;;
18838;SDS011;9548;56.920;14.804;2022-07-17T08:10:47;6.57;;;1.23;;
18838;SDS011;9548;56.920;14.804;2022-07-17T08:13:14;6.30;;;1.52;;
18838;SDS011;9548;56.920;14.804;2022-07-17T08:15:43;6.25;;;1.42;;
18838;SDS011;9548;56.920;14.804;2022-07-17T08:18:10;8.10;;;1.20;;
18838;SDS011;9548;56.920;14.804;2022-07-17T08:20:37;4.50;;;1.30;;
18838;SDS011;9548;56.920;14.804;2022-07-17T08:23:04;8.10;;;1.55;;
18838;SDS011;9548;56.920;14.804;2022-07-17T08:25:32;8.82;;;1.63;;
18838;SDS011;9548;56.920;14.804;2022-07-17T08:28:00;7.32;;;1.80;;
18838;SDS011;9548;56.920;14.804;2022-07-17T08:30:27;9.13;;;1.38;;
18838;SDS011;9548;56.920;14.804;2022-07-17T08:32:57;7.70;;;1.38;;
18838;SDS011;9548;56.920;14.804;2022-07-17T08:35:25;9.02;;;1.85;;
18838;SDS011;9548;56.920;14.804;2022-07-17T08:37:52;6.20;;;1.52;;
18838;SDS011;9548;56.920;14.804;2022-07-17T08:40:20;7.68;;;1.60;;
18838;SDS011;9548;56.920;14.804;2022-07-17T08:42:49;10.65;;;1.70;;
18838;SDS011;9548;56.920;14.804;2022-07-17T08:45:16;6.72;;;1.50;;
18838;SDS011;9548;56.920;14.804;2022-07-17T08:47:44;7.90;;;1.23;;
18838;SDS011;9548;56.920;14.804;2022-07-17T08:50:12;5.82;;;1.30;;
18838;SDS011;9548;56.920;14.804;2022-07-17T08:52:40;7.13;;;1.27;;
18838;SDS011;9548;56.920;14.804;2022-07-17T08:55:08;9.32;;;1.52;;
18838;SDS011;9548;56.920;14.804;2022-07-17T08:57:38;5.00;;;1.48;;
18838;SDS011;9548;56.920;14.804;2022-07-17T09:00:06;7.10;;;1.33;;
18838;SDS011;9548;56.920;14.804;2022-07-17T09:02:35;6.38;;;1.42;;
18838;SDS011;9548;56.920;14.804;2022-07-17T09:05:03;6.68;;;1.25;;
18838;SDS011;9548;56.920;14.804;2022-07-17T09:07:31;9.45;;;1.98;;
18838;SDS011;9548;56.920;14.804;2022-07-17T09:09:59;7.00;;;1.42;;
18838;SDS011;9548;56.920;14.804;2022-07-17T09:12:26;4.32;;;1.13;;
18838;SDS011;9548;56.920;14.804;2022-07-17T09:14:54;11.32;;;1.42;;
18838;SDS011;9548;56.920;14.804;2022-07-17T09:17:22;6.07;;;1.10;;
18838;SDS011;9548;56.920;14.804;2022-07-17T09:19:53;6.32;;;1.45;;
18838;SDS011;9548;56.920;14.804;2022-07-17T09:22:22;4.80;;;1.38;;
18838;SDS011;9548;56.920;14.804;2022-07-17T09:24:52;6.10;;;1.30;;
18838;SDS011;9548;56.920;14.804;2022-07-17T09:27:31;7.70;;;1.40;;
18838;SDS011;9548;56.920;14.804;2022-07-17T09:30:00;7.07;;;1.20;;
18838;SDS011;9548;56.920;14.804;2022-07-17T09:32:30;4.95;;;1.20;;
18838;SDS011;9548;56.920;14.804;2022-07-17T09:35:00;5.80;;;1.20;;
18838;SDS011;9548;56.920;14.804;2022-07-17T09:37:29;5.05;;;1.00;;
18838;SDS011;9548;56.920;14.804;2022-07-17T09:39:58;6.70;;;1.17;;
18838;SDS011;9548;56.920;14.804;2022-07-17T09:42:27;4.55;;;1.30;;
18838;SDS011;9548;56.920;14.804;2022-07-17T09:44:55;3.63;;;1.08;;
18838;SDS011;9548;56.920;14.804;2022-07-17T09:47:27;3.75;;;1.20;;
18838;SDS011;9548;56.920;14.804;2022-07-17T09:49:56;4.72;;;1.30;;
18838;SDS011;9548;56.920;14.804;2022-07-17T09:52:25;8.55;;;1.63;;
18838;SDS011;9548;56.920;14.804;2022-07-17T09:54:55;5.30;;;1.27;;
18838;SDS011;9548;56.920;14.804;2022-07-17T09:57:25;3.90;;;1.17;;
18838;SDS011;9548;56.920;14.804;2022-07-17T09:59:54;4.35;;;1.08;;
18838;SDS011;9548;56.920;14.804;2022-07-17T10:02:24;5.68;;;1.23;;
18838;SDS011;9548;56.920;14.804;2022-07-17T10:04:51;4.88;;;1.20;;
18838;SDS011;9548;56.920;14.804;2022-07-17T10:07:19;11.70;;;1.45;;
18838;SDS011;9548;56.920;14.804;2022-07-17T10:09:47;2.92;;;1.13;;
18838;SDS011;9548;56.920;14.804;2022-07-17T10:12:14;6.22;;;1.27;;
18838;SDS011;9548;56.920;14.804;2022-07-17T10:14:45;4.55;;;1.10;;
18838;SDS011;9548;56.920;14.804;2022-07-17T10:17:13;6.10;;;1.40;;
18838;SDS011;9548;56.920;14.804;2022-07-17T10:19:46;4.22;;;1.30;;
18838;SDS011;9548;56.920;14.804;2022-07-17T10:22:15;5.00;;;1.50;;
18838;SDS011;9548;56.920;14.804;2022-07-17T10:24:46;3.65;;;1.00;;
18838;SDS011;9548;56.920;14.804;2022-07-17T10:27:18;3.97;;;1.20;;
18838;SDS011;9548;56.920;14.804;2022-07-17T10:29:58;2.90;;;1.00;;
18838;SDS011;9548;56.920;14.804;2022-07-17T10:32:26;5.03;;;1.10;;
18838;SDS011;9548;56.920;14.804;2022-07-17T10:34:56;3.25;;;1.23;;
18838;SDS011;9548;56.920;14.804;2022-07-17T10:37:26;5.45;;;1.20;;
18838;SDS011;9548;56.920;14.804;2022-07-17T10:39:59;5.15;;;1.30;;
18838;SDS011;9548;56.920;14.804;2022-07-17T10:42:43;5.80;;;1.30;;
18838;SDS011;9548;56.920;14.804;2022-07-17T10:45:18;3.80;;;1.10;;
18838;SDS011;9548;56.920;14.804;2022-07-17T10:47:50;3.70;;;1.15;;
18838;SDS011;9548;56.920;14.804;2022-07-17T10:50:20;2.53;;;1.08;;
18838;SDS011;9548;56.920;14.804;2022-07-17T10:53:03;3.20;;;1.00;;
18838;SDS011;9548;56.920;14.804;2022-07-17T10:55:32;5.30;;;1.42;;
18838;SDS011;9548;56.920;14.804;2022-07-17T10:58:00;4.57;;;1.20;;
18838;SDS011;9548;56.920;14.804;2022-07-17T11:00:28;3.83;;;1.20;;
18838;SDS011;9548;56.920;14.804;2022-07-17T11:02:55;2.28;;;1.17;;
18838;SDS011;9548;56.920;14.804;2022-07-17T11:05:22;3.63;;;1.10;;
18838;SDS011;9548;56.920;14.804;2022-07-17T11:07:54;2.72;;;1.08;;
18838;SDS011;9548;56.920;14.804;2022-07-17T11:10:24;5.15;;;1.50;;
18838;SDS011;9548;56.920;14.804;2022-07-17T11:12:53;4.70;;;1.30;;
18838;SDS011;9548;56.920;14.804;2022-07-17T11:15:21;4.45;;;1.50;;
18838;SDS011;9548;56.920;14.804;2022-07-17T11:17:49;3.42;;;1.08;;
18838;SDS011;9548;56.920;14.804;2022-07-17T11:20:16;4.57;;;1.02;;
18838;SDS011;9548;56.920;14.804;2022-07-17T11:22:44;3.70;;;1.17;;
18838;SDS011;9548;56.920;14.804;2022-07-17T11:25:11;2.72;;;0.80;;
18838;SDS011;9548;56.920;14.804;2022-07-17T11:27:38;2.67;;;0.80;;
18838;SDS011;9548;56.920;14.804;2022-07-17T11:30:09;4.57;;;1.48;;
18838;SDS011;9548;56.920;14.804;2022-07-17T11:32:41;2.35;;;0.73;;
18838;SDS011;9548;56.920;14.804;2022-07-17T11:35:16;3.75;;;1.15;;
18838;SDS011;9548;56.920;14.804;2022-07-17T11:37:45;4.75;;;1.10;;
18838;SDS011;9548;56.920;14.804;2022-07-17T11:40:15;3.22;;;1.10;;
18838;SDS011;9548;56.920;14.804;2022-07-17T11:42:42;3.50;;;0.80;;
18838;SDS011;9548;56.920;14.804;2022-07-17T11:45:10;5.03;;;1.50;;
18838;SDS011;9548;56.920;14.804;2022-07-17T11:47:37;4.13;;;1.15;;
18838;SDS011;9548;56.920;14.804;2022-07-17T11:50:05;5.32;;;1.10;;
18838;SDS011;9548;56.920;14.804;2022-07-17T11:52:42;2.78;;;1.02;;
18838;SDS011;9548;56.920;14.804;2022-07-17T11:55:11;1.95;;;0.85;;
18838;SDS011;9548;56.920;14.804;2022-07-17T11:57:42;4.13;;;1.15;;
18838;SDS011;9548;56.920;14.804;2022-07-17T12:00:11;2.95;;;0.93;;
18838;SDS011;9548;56.920;14.804;2022-07-17T12:02:40;2.88;;;1.02;;
18838;SDS011;9548;56.920;14.804;2022-07-17T12:05:07;2.90;;;0.82;;
18838;SDS011;9548;56.920;14.804;2022-07-17T12:07:39;4.30;;;1.13;;
18838;SDS011;9548;56.920;14.804;2022-07-17T12:10:12;4.22;;;1.10;;
18838;SDS011;9548;56.920;14.804;2022-07-17T12:12:50;4.32;;;1.02;;
18838;SDS011;9548;56.920;14.804;2022-07-17T12:15:19;4.18;;;1.05;;
18838;SDS011;9548;56.920;14.804;2022-07-17T12:17:46;4.07;;;1.10;;
18838;SDS011;9548;56.920;14.804;2022-07-17T12:20:13;2.30;;;1.02;;
18838;SDS011;9548;56.920;14.804;2022-07-17T12:22:45;3.63;;;0.88;;
18838;SDS011;9548;56.920;14.804;2022-07-17T12:25:23;2.70;;;0.75;;
18838;SDS011;9548;56.920;14.804;2022-07-17T12:27:50;3.30;;;0.90;;
18838;SDS011;9548;56.920;14.804;2022-07-17T12:30:17;3.45;;;1.25;;
18838;SDS011;9548;56.920;14.804;2022-07-17T12:32:45;2.78;;;0.82;;
18838;SDS011;9548;56.920;14.804;2022-07-17T12:35:13;5.25;;;1.10;;
18838;SDS011;9548;56.920;14.804;2022-07-17T12:37:40;3.65;;;0.88;;
18838;SDS011;9548;56.920;14.804;2022-07-17T12:40:09;4.78;;;1.00;;
18838;SDS011;9548;56.920;14.804;2022-07-17T12:42:37;4.05;;;0.90;;
18838;SDS011;9548;56.920;14.804;2022-07-17T12:45:04;0.98;;;0.75;;
18838;SDS011;9548;56.920;14.804;2022-07-17T12:47:31;2.00;;;0.70;;
18838;SDS011;9548;56.920;14.804;2022-07-17T12:49:59;2.90;;;0.77;;
18838;SDS011;9548;56.920;14.804;2022-07-17T12:52:26;3.33;;;0.90;;
18838;SDS011;9548;56.920;14.804;2022-07-17T12:54:53;2.53;;;0.80;;
18838;SDS011;9548;56.920;14.804;2022-07-17T12:57:21;2.88;;;0.82;;
18838;SDS011;9548;56.920;14.804;2022-07-17T12:59:48;2.90;;;0.88;;
18838;SDS011;9548;56.920;14.804;2022-07-17T13:02:15;2.72;;;1.02;;
18838;SDS011;9548;56.920;14.804;2022-07-17T13:04:42;4.43;;;0.98;;
18838;SDS011;9548;56.920;14.804;2022-07-17T13:07:09;2.60;;;0.80;;
18838;SDS011;9548;56.920;14.804;2022-07-17T13:09:36;2.20;;;0.90;;
18838;SDS011;9548;56.920;14.804;2022-07-17T13:12:03;4.63;;;1.00;;
18838;SDS011;9548;56.920;14.804;2022-07-17T13:14:32;1.73;;;0.90;;
18838;SDS011;9548;56.920;14.804;2022-07-17T13:16:59;1.83;;;0.85;;
18838;SDS011;9548;56.920;14.804;2022-07-17T13:19:26;1.95;;;0.80;;
18838;SDS011;9548;56.920;14.804;2022-07-17T13:21:53;3.22;;;0.70;;
18838;SDS011;9548;56.920;14.804;2022-07-17T13:24:21;2.17;;;0.80;;
18838;SDS011;9548;56.920;14.804;2022-07-17T13:26:48;3.35;;;0.90;;
18838;SDS011;9548;56.920;14.804;2022-07-17T13:29:15;1.17;;;0.55;;
18838;SDS011;9548;56.920;14.804;2022-07-17T13:31:43;1.85;;;0.75;;
18838;SDS011;9548;56.920;14.804;2022-07-17T13:34:10;2.28;;;0.60;;
18838;SDS011;9548;56.920;14.804;2022-07-17T13:36:37;1.88;;;0.90;;
18838;SDS011;9548;56.920;14.804;2022-07-17T13:39:05;1.83;;;0.50;;
18838;SDS011;9548;56.920;14.804;2022-07-17T13:41:32;3.58;;;0.65;;
18838;SDS011;9548;56.920;14.804;2022-07-17T13:43:59;3.00;;;0.65;;
18838;SDS011;9548;56.920;14.804;2022-07-17T13:46:26;1.30;;;0.60;;
18838;SDS011;9548;56.920;14.804;2022-07-17T13:48:54;2.35;;;0.50;;
18838;SDS011;9548;56.920;14.804;2022-07-17T13:51:21;2.53;;;0.70;;
18838;SDS011;9548;56.920;14.804;2022-07-17T13:53:48;2.50;;;0.70;;
18838;SDS011;9548;56.920;14.804;2022-07-17T13:56:15;1.25;;;0.70;;
18838;SDS011;9548;56.920;14.804;2022-07-17T13:58:43;2.05;;;0.70;;
18838;SDS011;9548;56.920;14.804;2022-07-17T14:01:10;2.03;;;0.90;;
18838;SDS011;9548;56.920;14.804;2022-07-17T14:03:38;1.58;;;0.70;;
18838;SDS011;9548;56.920;14.804;2022-07-17T14:06:06;1.42;;;0.60;;
18838;SDS011;9548;56.920;14.804;2022-07-17T14:08:33;2.10;;;0.63;;
18838;SDS011;9548;56.920;14.804;2022-07-17T14:11:02;2.85;;;0.70;;
18838;SDS011;9548;56.920;14.804;2022-07-17T14:13:29;1.58;;;0.60;;
18838;SDS011;9548;56.920;14.804;2022-07-17T14:15:56;1.65;;;0.50;;
18838;SDS011;9548;56.920;14.804;2022-07-17T14:18:23;3.17;;;0.68;;
18838;SDS011;9548;56.920;14.804;2022-07-17T14:20:50;1.38;;;0.60;;
18838;SDS011;9548;56.920;14.804;2022-07-17T14:23:19;2.08;;;0.60;;
18838;SDS011;9548;56.920;14.804;2022-07-17T14:25:46;2.95;;;0.60;;
18838;SDS011;9548;56.920;14.804;2022-07-17T14:28:13;2.60;;;0.90;;
18838;SDS011;9548;56.920;14.804;2022-07-17T14:30:40;1.50;;;0.65;;
18838;SDS011;9548;56.920;14.804;2022-07-17T14:33:07;3.53;;;0.60;;
18838;SDS011;9548;56.920;14.804;2022-07-17T14:35:34;3.65;;;0.80;;
18838;SDS011;9548;56.920;14.804;2022-07-17T14:38:03;1.20;;;0.65;;
18838;SDS011;9548;56.920;14.804;2022-07-17T14:40:32;2.28;;;0.80;;
18838;SDS011;9548;56.920;14.804;2022-07-17T14:42:59;1.95;;;0.70;;
18838;SDS011;9548;56.920;14.804;2022-07-17T14:45:26;4.25;;;0.77;;
18838;SDS011;9548;56.920;14.804;2022-07-17T14:47:54;2.72;;;0.90;;
18838;SDS011;9548;56.920;14.804;2022-07-17T14:50:21;2.28;;;0.57;;